sensor_id;sensor_type;location;lat;lon;timestamp;P1;P2;P0
36453;PMS5003;22478;51.740;-1.314;2023-04-23T00:01:53;133;120;
36453;PMS5003;22478;51.740;-1.314;2023-04-23T00:04:23;123;119;
36453;PMS5003;22478;51.740;-1.314;2023-04-23T00:06:52;128;114;
36453;PMS5003;22478;51.740;-1.314;2023-04-23T00:09:20;133;115;
36453;PMS5003;22478;51.740;-1.314;2023-04-23T00:11:49;122;116;
36453;PMS5003;22478;51.740;-1.314;2023-04-23T00:14:17;128;116;
36453;PMS5003;22478;51.740;-1.314;2023-04-23T00:16:45;118;117;
36453;PMS5003;22478;51.740;-1.314;2023-04-23T00:19:12;117;109;
36453;PMS5003;22478;51.740;-1.314;2023-04-23T00:21:40;113;113;
36453;PMS5003;22478;51.740;-1.314;2023-04-23T00:24:07;124;116;
36453;PMS5003;22478;51.740;-1.314;2023-04-23T00:26:34;127;112;
36453;PMS5003;22478;51.740;-1.314;2023-04-23T00:29:02;127;113;
36453;PMS5003;22478;51.740;-1.314;2023-04-23T00:31:29;128;113;
36453;PMS5003;22478;51.740;-1.314;2023-04-23T00:33:57;128;114;
36453;PMS5003;22478;51.740;-1.314;2023-04-23T00:36:23;122;115;
36453;PMS5003;22478;51.740;-1.314;2023-04-23T00:38:51;111;108;
36453;PMS5003;22478;51.740;-1.314;2023-04-23T00:41:18;116;111;
36453;PMS5003;22478;51.740;-1.314;2023-04-23T00:43:46;124;116;
36453;PMS5003;22478;51.740;-1.314;2023-04-23T00:46:13;125;113;
36453;PMS5003;22478;51.740;-1.314;2023-04-23T00:48:41;117;107;
36453;PMS5003;22478;51.740;-1.314;2023-04-23T00:51:10;124;116;
36453;PMS5003;22478;51.740;-1.314;2023-04-23T00:53:37;123;116;
36453;PMS5003;22478;51.740;-1.314;2023-04-23T00:56:04;115;113;
36453;PMS5003;22478;51.740;-1.314;2023-04-23T00:58:32;118;115;
36453;PMS5003;22478;51.740;-1.314;2023-04-23T01:01:00;114;111;
36453;PMS5003;22478;51.740;-1.314;2023-04-23T01:03:28;117;114;
36453;PMS5003;22478;51.740;-1.314;2023-04-23T01:05:56;118;115;
36453;PMS5003;22478;51.740;-1.314;2023-04-23T01:08:24;122;116;
36453;PMS5003;22478;51.740;-1.314;2023-04-23T01:10:51;114;108;
36453;PMS5003;22478;51.740;-1.314;2023-04-23T01:13:19;117;110;
36453;PMS5003;22478;51.740;-1.314;2023-04-23T01:15:46;117;115;
36453;PMS5003;22478;51.740;-1.314;2023-04-23T01:18:13;112;105;
36453;PMS5003;22478;51.740;-1.314;2023-04-23T01:20:40;109;102;
36453;PMS5003;22478;51.740;-1.314;2023-04-23T01:23:08;107;101;
36453;PMS5003;22478;51.740;-1.314;2023-04-23T01:25:35;102;99;
36453;PMS5003;22478;51.740;-1.314;2023-04-23T01:28:03;102;94;
36453;PMS5003;22478;51.740;-1.314;2023-04-23T01:30:31;92;89;
36453;PMS5003;22478;51.740;-1.314;2023-04-23T01:33:00;92;89;
36453;PMS5003;22478;51.740;-1.314;2023-04-23T01:35:28;105;99;
36453;PMS5003;22478;51.740;-1.314;2023-04-23T01:37:56;97;92;
36453;PMS5003;22478;51.740;-1.314;2023-04-23T01:40:26;102;100;
36453;PMS5003;22478;51.740;-1.314;2023-04-23T01:42:54;109;103;
36453;PMS5003;22478;51.740;-1.314;2023-04-23T01:45:22;104;100;
36453;PMS5003;22478;51.740;-1.314;2023-04-23T01:47:49;95;93;
36453;PMS5003;22478;51.740;-1.314;2023-04-23T01:50:17;112;107;
36453;PMS5003;22478;51.740;-1.314;2023-04-23T01:52:44;109;104;
36453;PMS5003;22478;51.740;-1.314;2023-04-23T01:55:11;102;97;
36453;PMS5003;22478;51.740;-1.314;2023-04-23T01:57:39;103;96;
36453;PMS5003;22478;51.740;-1.314;2023-04-23T02:00:07;104;104;
36453;PMS5003;22478;51.740;-1.314;2023-04-23T02:02:36;115;111;
36453;PMS5003;22478;51.740;-1.314;2023-04-23T02:05:04;115;109;
36453;PMS5003;22478;51.740;-1.314;2023-04-23T02:07:36;112;107;
36453;PMS5003;22478;51.740;-1.314;2023-04-23T02:10:05;113;108;
36453;PMS5003;22478;51.740;-1.314;2023-04-23T02:12:33;122;115;
36453;PMS5003;22478;51.740;-1.314;2023-04-23T02:15:02;108;106;
36453;PMS5003;22478;51.740;-1.314;2023-04-23T02:17:30;116;110;
36453;PMS5003;22478;51.740;-1.314;2023-04-23T02:19:57;115;107;
36453;PMS5003;22478;51.740;-1.314;2023-04-23T02:22:24;111;106;
36453;PMS5003;22478;51.740;-1.314;2023-04-23T02:24:51;109;103;
36453;PMS5003;22478;51.740;-1.314;2023-04-23T02:27:20;102;101;
36453;PMS5003;22478;51.740;-1.314;2023-04-23T02:29:48;112;105;
36453;PMS5003;22478;51.740;-1.314;2023-04-23T02:32:15;112;106;
36453;PMS5003;22478;51.740;-1.314;2023-04-23T02:34:42;109;104;
36453;PMS5003;22478;51.740;-1.314;2023-04-23T02:37:09;109;103;
36453;PMS5003;22478;51.740;-1.314;2023-04-23T02:39:36;112;102;
36453;PMS5003;22478;51.740;-1.314;2023-04-23T02:42:03;123;115;
36453;PMS5003;22478;51.740;-1.314;2023-04-23T02:44:31;113;108;
36453;PMS5003;22478;51.740;-1.314;2023-04-23T02:46:58;108;101;
36453;PMS5003;22478;51.740;-1.314;2023-04-23T02:49:26;99;98;
36453;PMS5003;22478;51.740;-1.314;2023-04-23T02:51:53;111;107;
36453;PMS5003;22478;51.740;-1.314;2023-04-23T02:54:20;107;103;
36453;PMS5003;22478;51.740;-1.314;2023-04-23T02:56:48;104;100;
36453;PMS5003;22478;51.740;-1.314;2023-04-23T02:59:15;103;100;
36453;PMS5003;22478;51.740;-1.314;2023-04-23T03:01:42;103;99;
36453;PMS5003;22478;51.740;-1.314;2023-04-23T03:04:09;101;99;
36453;PMS5003;22478;51.740;-1.314;2023-04-23T03:06:37;102;101;
36453;PMS5003;22478;51.740;-1.314;2023-04-23T03:09:04;108;103;
36453;PMS5003;22478;51.740;-1.314;2023-04-23T03:11:31;101;99;
36453;PMS5003;22478;51.740;-1.314;2023-04-23T03:13:59;106;103;
36453;PMS5003;22478;51.740;-1.314;2023-04-23T03:16:27;103;100;
36453;PMS5003;22478;51.740;-1.314;2023-04-23T03:18:55;98;98;
36453;PMS5003;22478;51.740;-1.314;2023-04-23T03:21:22;101;98;
36453;PMS5003;22478;51.740;-1.314;2023-04-23T03:23:49;103;101;
36453;PMS5003;22478;51.740;-1.314;2023-04-23T03:26:16;105;101;
36453;PMS5003;22478;51.740;-1.314;2023-04-23T03:28:44;107;103;
36453;PMS5003;22478;51.740;-1.314;2023-04-23T03:31:12;108;102;
36453;PMS5003;22478;51.740;-1.314;2023-04-23T03:33:39;117;109;
36453;PMS5003;22478;51.740;-1.314;2023-04-23T03:36:06;119;113;
36453;PMS5003;22478;51.740;-1.314;2023-04-23T03:38:33;120;114;
36453;PMS5003;22478;51.740;-1.314;2023-04-23T03:41:00;120;111;
36453;PMS5003;22478;51.740;-1.314;2023-04-23T03:43:27;107;101;
36453;PMS5003;22478;51.740;-1.314;2023-04-23T03:45:55;109;109;
36453;PMS5003;22478;51.740;-1.314;2023-04-23T03:48:22;110;108;
36453;PMS5003;22478;51.740;-1.314;2023-04-23T03:50:49;113;107;
36453;PMS5003;22478;51.740;-1.314;2023-04-23T03:53:16;114;108;
36453;PMS5003;22478;51.740;-1.314;2023-04-23T03:55:43;107;101;
36453;PMS5003;22478;51.740;-1.314;2023-04-23T03:58:10;121;112;
36453;PMS5003;22478;51.740;-1.314;2023-04-23T04:00:38;109;107;
36453;PMS5003;22478;51.740;-1.314;2023-04-23T04:03:05;116;109;
36453;PMS5003;22478;51.740;-1.314;2023-04-23T04:05:32;120;114;
36453;PMS5003;22478;51.740;-1.314;2023-04-23T04:07:59;120;113;
36453;PMS5003;22478;51.740;-1.314;2023-04-23T04:10:27;110;106;
36453;PMS5003;22478;51.740;-1.314;2023-04-23T04:12:53;110;104;
36453;PMS5003;22478;51.740;-1.314;2023-04-23T04:15:21;115;109;
36453;PMS5003;22478;51.740;-1.314;2023-04-23T04:17:48;121;115;
36453;PMS5003;22478;51.740;-1.314;2023-04-23T04:20:15;113;106;
36453;PMS5003;22478;51.740;-1.314;2023-04-23T04:22:43;118;108;
36453;PMS5003;22478;51.740;-1.314;2023-04-23T04:25:10;109;107;
36453;PMS5003;22478;51.740;-1.314;2023-04-23T04:27:38;107;106;
36453;PMS5003;22478;51.740;-1.314;2023-04-23T04:30:05;116;112;
36453;PMS5003;22478;51.740;-1.314;2023-04-23T04:32:33;118;113;
36453;PMS5003;22478;51.740;-1.314;2023-04-23T04:35:01;105;104;
36453;PMS5003;22478;51.740;-1.314;2023-04-23T04:37:28;107;102;
36453;PMS5003;22478;51.740;-1.314;2023-04-23T04:39:55;112;108;
36453;PMS5003;22478;51.740;-1.314;2023-04-23T04:42:22;109;107;
36453;PMS5003;22478;51.740;-1.314;2023-04-23T04:44:50;111;106;
36453;PMS5003;22478;51.740;-1.314;2023-04-23T04:47:17;120;113;
36453;PMS5003;22478;51.740;-1.314;2023-04-23T04:49:45;116;106;
36453;PMS5003;22478;51.740;-1.314;2023-04-23T04:52:12;118;105;
36453;PMS5003;22478;51.740;-1.314;2023-04-23T04:54:40;117;115;
36453;PMS5003;22478;51.740;-1.314;2023-04-23T04:57:07;122;111;
